Time;durP1;ratioP1;P1;durP2;ratioP2;P2;SDS_P1;SDS_P2;PMS_P1;PMS_P2;Temp;Humidity;BMP_temperature;BMP_pressure;BME280_temperature;BME280_humidity;BME280_pressure;Samples;Min_cycle;Max_cycle;Signal;HPM_P1;HPM_P2
2020/12/06 00:01:31;;;;;;;0.28;0.28;;;;;;;-4.00;90.52;102494.47;1804137;78;21165;-53
2020/12/06 00:03:59;;;;;;;0.10;0.10;;;;;;;-4.00;90.45;102495.80;1786469;78;21173;-49
2020/12/06 00:06:27;;;;;;;0.08;0.08;;;;;;;-3.99;90.13;102495.30;1788806;78;21169;-53
2020/12/06 00:08:55;;;;;;;0.00;0.00;;;;;;;-4.03;89.94;102495.20;1785669;80;21548;-49
2020/12/06 00:11:22;;;;;;;0.05;0.05;;;;;;;-4.04;89.93;102500.20;1786201;80;21154;-50
2020/12/06 00:13:50;;;;;;;7.45;1.02;;;;;;;-4.06;90.02;102500.82;1794915;78;21127;-54
2020/12/06 00:16:18;;;;;;;0.10;0.10;;;;;;;-4.08;90.16;102496.94;1814988;78;21154;-53
2020/12/06 00:18:47;;;;;;;0.10;0.10;;;;;;;-4.12;90.08;102493.70;1793743;78;21577;-48
2020/12/06 00:21:17;;;;;;;0.47;0.47;;;;;;;-4.14;90.10;102500.15;1786248;80;21114;-48
2020/12/06 00:23:45;;;;;;;0.17;0.17;;;;;;;-4.14;90.19;102492.14;1809553;78;21086;-50
2020/12/06 00:26:14;;;;;;;0.10;0.10;;;;;;;-4.14;90.09;102492.14;1818424;78;21553;-50
2020/12/06 00:28:42;;;;;;;0.00;0.00;;;;;;;-4.16;90.05;102486.08;1807826;78;21560;-52
2020/12/06 00:31:11;;;;;;;0.53;0.30;;;;;;;-4.21;89.98;102482.97;1818094;78;21118;-48
2020/12/06 00:33:38;;;;;;;0.30;0.30;;;;;;;-4.24;90.11;102489.91;1806421;78;21134;-52
2020/12/06 00:36:07;;;;;;;0.10;0.10;;;;;;;-4.26;90.15;102485.19;1810779;78;21540;-48
2020/12/06 00:38:35;;;;;;;0.10;0.10;;;;;;;-4.28;90.28;102487.14;1744401;79;21137;-54
2020/12/06 00:41:03;;;;;;;0.10;0.10;;;;;;;-4.29;90.17;102482.79;1823857;78;21568;-53
2020/12/06 00:43:31;;;;;;;0.15;0.15;;;;;;;-4.29;90.31;102494.80;1827358;78;21165;-50
2020/12/06 00:45:59;;;;;;;0.75;0.75;;;;;;;-4.29;90.12;102488.13;1826531;78;21396;-53
2020/12/06 00:48:26;;;;;;;0.00;0.00;;;;;;;-4.25;89.98;102484.20;1826432;78;21126;-50
2020/12/06 00:50:53;;;;;;;0.70;0.35;;;;;;;-4.24;89.67;102496.59;1820469;78;21118;-48
2020/12/06 00:53:21;;;;;;;0.10;0.10;;;;;;;-4.24;89.60;102498.77;1814156;78;21133;-48
2020/12/06 00:55:49;;;;;;;0.00;0.00;;;;;;;-4.27;89.63;102495.03;1799524;78;21204;-47
2020/12/06 00:58:17;;;;;;;0.00;0.00;;;;;;;-4.26;89.72;102495.87;1811348;78;21114;-49
2020/12/06 01:00:44;;;;;;;0.00;0.00;;;;;;;-4.27;89.63;102492.85;1822872;78;20971;-50
2020/12/06 01:03:12;;;;;;;0.10;0.10;;;;;;;-4.29;89.21;102501.48;1820347;78;21138;-49
2020/12/06 01:05:39;;;;;;;0.47;0.47;;;;;;;-4.29;89.28;102496.14;1794346;79;21568;-48
2020/12/06 01:08:07;;;;;;;0.68;0.68;;;;;;;-4.33;88.81;102493.73;1812941;78;21129;-49
2020/12/06 01:10:35;;;;;;;0.10;0.10;;;;;;;-4.42;88.55;102489.18;1812247;78;21102;-54
2020/12/06 01:13:02;;;;;;;0.80;0.40;;;;;;;-4.51;88.38;102487.28;1818262;78;21109;-53
2020/12/06 01:15:30;;;;;;;0.00;0.00;;;;;;;-4.57;88.45;102482.48;1826487;78;21109;-48
2020/12/06 01:17:58;;;;;;;0.10;0.10;;;;;;;-4.65;88.25;102488.94;1827039;78;21157;-54
2020/12/06 01:20:26;;;;;;;0.03;0.03;;;;;;;-4.71;88.33;102488.14;1827020;78;21141;-49
2020/12/06 01:22:53;;;;;;;0.10;0.10;;;;;;;-4.76;88.64;102489.36;1795238;78;21082;-49
2020/12/06 01:25:20;;;;;;;0.10;0.10;;;;;;;-4.79;88.73;102486.95;1794400;79;21137;-49
2020/12/06 01:27:49;;;;;;;0.30;0.30;;;;;;;-4.77;88.98;102491.68;1796783;78;21197;-48
2020/12/06 01:30:16;;;;;;;0.10;0.10;;;;;;;-4.76;88.92;102487.19;1794493;78;21129;-53
2020/12/06 01:32:44;;;;;;;0.10;0.10;;;;;;;-4.76;88.83;102492.03;1792205;79;21529;-54
2020/12/06 01:35:12;;;;;;;1.45;1.30;;;;;;;-4.80;88.79;102491.95;1785641;80;21572;-49
2020/12/06 01:37:39;;;;;;;0.00;0.00;;;;;;;-4.81;88.93;102492.91;1807753;78;21102;-49
2020/12/06 01:40:07;;;;;;;0.00;0.00;;;;;;;-4.84;89.00;102493.16;1785635;78;21656;-53
2020/12/06 01:42:34;;;;;;;0.08;0.08;;;;;;;-4.86;88.82;102495.11;1785591;78;21496;-48
2020/12/06 01:45:02;;;;;;;0.10;0.10;;;;;;;-4.91;88.51;102494.65;1800036;78;21122;-54
2020/12/06 01:47:30;;;;;;;0.00;0.00;;;;;;;-4.97;88.56;102500.02;1817618;78;21102;-54
2020/12/06 01:49:58;;;;;;;0.10;0.10;;;;;;;-5.03;88.32;102492.51;1817632;78;21142;-54
2020/12/06 01:52:29;;;;;;;0.10;0.10;;;;;;;-5.03;88.50;102487.17;1817435;78;20979;-48
2020/12/06 01:54:55;;;;;;;0.00;0.00;;;;;;;-5.04;88.78;102490.83;1817821;78;21118;-53
2020/12/06 01:57:22;;;;;;;0.10;0.10;;;;;;;-5.05;88.64;102481.61;1814337;77;21492;-53
2020/12/06 01:59:49;;;;;;;0.10;0.10;;;;;;;-5.07;88.80;102490.22;1814914;78;21166;-48
2020/12/06 02:02:17;;;;;;;0.10;0.10;;;;;;;-5.05;89.03;102485.61;1788867;78;21110;-53
2020/12/06 02:04:45;;;;;;;0.10;0.10;;;;;;;-5.02;89.46;102478.68;1785562;80;21250;-50
2020/12/06 02:07:13;;;;;;;0.10;0.10;;;;;;;-5.02;89.46;102478.68;1785516;80;21173;-48
2020/12/06 02:09:43;;;;;;;0.25;0.25;;;;;;;-4.93;89.63;102483.75;1816519;78;21159;-49
2020/12/06 02:12:10;;;;;;;0.30;0.30;;;;;;;-4.89;89.54;102488.70;1817707;78;21122;-49
2020/12/06 02:14:38;;;;;;;0.10;0.10;;;;;;;-4.84;89.53;102483.83;1817177;78;21086;-49
2020/12/06 02:17:06;;;;;;;0.10;0.10;;;;;;;-4.79;89.42;102487.45;1805489;78;21169;-53
2020/12/06 02:19:33;;;;;;;0.28;0.28;;;;;;;-4.76;89.26;102488.52;1785239;80;21556;-49
2020/12/06 02:22:01;;;;;;;0.30;0.30;;;;;;;-4.75;89.11;102500.87;1785473;80;21841;-48
2020/12/06 02:24:29;;;;;;;0.17;0.17;;;;;;;-4.76;89.01;102498.70;1787392;78;21126;-49
2020/12/06 02:26:57;;;;;;;0.25;0.25;;;;;;;-4.79;89.04;102494.95;1785379;80;21161;-48
2020/12/06 02:29:24;;;;;;;0.13;0.08;;;;;;;-4.82;88.86;102503.23;1785589;78;21146;-49
2020/12/06 02:31:51;;;;;;;0.00;0.00;;;;;;;-4.84;88.79;102502.50;1785547;80;21251;-49
2020/12/06 02:34:19;;;;;;;0.45;0.45;;;;;;;-4.87;88.82;102505.43;1819229;78;21146;-53
2020/12/06 02:36:47;;;;;;;0.17;0.17;;;;;;;-4.89;88.62;102511.37;1826906;78;21402;-49
2020/12/06 02:39:14;;;;;;;0.10;0.10;;;;;;;-4.95;88.76;102505.20;1826849;78;21117;-53
2020/12/06 02:41:45;;;;;;;0.10;0.10;;;;;;;-4.94;88.37;102502.91;1826714;78;20974;-54
2020/12/06 02:44:13;;;;;;;0.03;0.03;;;;;;;-4.94;88.37;102502.91;1826486;78;21149;-53
2020/12/06 02:46:42;;;;;;;0.65;0.65;;;;;;;-4.92;88.41;102507.64;1826831;78;21121;-53
2020/12/06 02:49:10;;;;;;;0.20;0.20;;;;;;;-4.91;88.59;102505.31;1816367;78;21133;-50
2020/12/06 02:51:37;;;;;;;0.10;0.10;;;;;;;-4.90;88.49;102508.33;1811911;78;21369;-49
2020/12/06 02:54:06;;;;;;;0.00;0.00;;;;;;;-4.87;88.52;102511.23;1826977;78;21106;-50
2020/12/06 02:56:33;;;;;;;0.10;0.10;;;;;;;-4.87;88.42;102513.89;1826534;78;21572;-49
2020/12/06 02:59:01;;;;;;;0.10;0.10;;;;;;;-4.85;88.31;102523.46;1826181;78;21528;-53
2020/12/06 03:01:30;;;;;;;0.03;0.03;;;;;;;-4.85;88.31;102523.46;1802104;78;21110;-49
2020/12/06 03:03:58;;;;;;;0.00;0.00;;;;;;;-4.85;88.03;102521.28;1826941;78;21129;-53
2020/12/06 03:06:26;;;;;;;0.23;0.23;;;;;;;-4.86;88.07;102514.27;1821656;78;21117;-51
2020/12/06 03:08:53;;;;;;;0.00;0.00;;;;;;;-4.86;88.07;102519.61;1794852;78;21130;-49
2020/12/06 03:11:25;;;;;;;0.00;0.00;;;;;;;-4.87;87.83;102517.89;1796122;78;21153;-50
2020/12/06 03:13:51;;;;;;;0.17;0.17;;;;;;;-4.86;87.70;102520.94;1815522;78;21000;-53
2020/12/06 03:16:19;;;;;;;0.10;0.10;;;;;;;-4.88;87.72;102521.05;1824097;78;21135;-48
2020/12/06 03:18:46;;;;;;;0.10;0.10;;;;;;;-4.92;87.61;102528.97;1824976;78;21456;-53
2020/12/06 03:21:14;;;;;;;0.20;0.20;;;;;;;-4.94;87.78;102533.58;1794385;79;21121;-54
2020/12/06 03:23:41;;;;;;;0.10;0.10;;;;;;;-4.94;87.78;102533.58;1813252;78;21133;-53
2020/12/06 03:26:09;;;;;;;0.20;0.20;;;;;;;-4.99;87.66;102545.11;1827048;78;21540;-53
2020/12/06 03:28:37;;;;;;;1.07;0.53;;;;;;;-4.99;87.66;102545.11;1824703;78;21122;-52
2020/12/06 03:31:04;;;;;;;0.08;0.08;;;;;;;-5.00;87.73;102546.06;1826954;78;21162;-53
2020/12/06 03:33:34;;;;;;;0.10;0.10;;;;;;;-5.02;87.01;102543.55;1806866;78;21142;-49
2020/12/06 03:36:01;;;;;;;0.00;0.00;;;;;;;-5.08;87.03;102539.19;1785428;80;21560;-48
2020/12/06 03:38:29;;;;;;;0.08;0.08;;;;;;;-5.18;86.82;102539.09;1785618;78;21114;-53
2020/12/06 03:40:56;;;;;;;0.17;0.17;;;;;;;-5.27;86.88;102539.83;1785493;80;21157;-54
2020/12/06 03:43:24;;;;;;;0.20;0.20;;;;;;;-5.38;86.50;102542.53;1796454;78;21122;-54
2020/12/06 03:45:52;;;;;;;0.05;0.05;;;;;;;-5.38;86.50;102542.53;1817611;78;21111;-49
2020/12/06 03:48:20;;;;;;;0.15;0.15;;;;;;;-5.44;86.45;102544.72;1809937;78;21611;-53
2020/12/06 03:50:47;;;;;;;0.20;0.20;;;;;;;-5.47;86.33;102546.77;1805181;78;21134;-50
2020/12/06 03:53:15;;;;;;;0.30;0.30;;;;;;;-5.51;86.59;102546.67;1804184;78;21472;-54
2020/12/06 03:55:42;;;;;;;0.00;0.00;;;;;;;-5.55;86.03;102542.55;1785472;80;21114;-54
2020/12/06 03:58:10;;;;;;;0.10;0.10;;;;;;;-5.55;86.03;102542.55;1796565;78;21118;-54
2020/12/06 04:00:37;;;;;;;0.10;0.10;;;;;;;-5.59;86.21;102537.94;1798116;78;21134;-53
2020/12/06 04:03:05;;;;;;;0.30;0.30;;;;;;;-5.68;86.45;102544.86;1795610;78;21149;-49
2020/12/06 04:05:32;;;;;;;0.10;0.10;;;;;;;-5.68;86.45;102544.86;1812856;78;21094;-54
2020/12/06 04:08:00;;;;;;;0.03;0.03;;;;;;;-5.71;86.60;102550.43;1817814;78;21532;-54
2020/12/06 04:10:28;;;;;;;0.30;0.30;;;;;;;-5.72;86.49;102550.05;1817646;78;21521;-48
2020/12/06 04:12:55;;;;;;;0.20;0.20;;;;;;;-5.71;86.26;102552.22;1817296;78;21142;-49
2020/12/06 04:15:23;;;;;;;0.20;0.20;;;;;;;-5.73;86.46;102552.36;1817596;78;21086;-48
2020/12/06 04:17:50;;;;;;;0.37;0.30;;;;;;;-5.77;86.29;102563.38;1817397;78;21541;-49
2020/12/06 04:20:18;;;;;;;0.10;0.10;;;;;;;-5.77;86.29;102563.38;1817866;78;21118;-50
2020/12/06 04:22:45;;;;;;;0.20;0.20;;;;;;;-5.81;86.00;102561.45;1805370;78;21141;-53
2020/12/06 04:25:12;;;;;;;0.10;0.10;;;;;;;-5.79;86.23;102557.31;1817662;78;21185;-49
2020/12/06 04:27:40;;;;;;;0.10;0.10;;;;;;;-5.81;86.52;102554.80;1813121;78;21500;-49
2020/12/06 04:30:08;;;;;;;0.20;0.20;;;;;;;-5.82;86.25;102558.90;1785590;80;21394;-53
2020/12/06 04:32:35;;;;;;;0.15;0.15;;;;;;;-5.84;86.67;102565.66;1789150;78;21154;-54
2020/12/06 04:35:03;;;;;;;0.00;0.00;;;;;;;-5.86;86.25;102559.60;1824706;78;21129;-47
2020/12/06 04:37:30;;;;;;;0.20;0.20;;;;;;;-5.89;86.10;102570.50;1826374;78;21129;-53
2020/12/06 04:39:58;;;;;;;0.10;0.10;;;;;;;-5.93;86.36;102566.41;1826907;78;21102;-48
2020/12/06 04:42:25;;;;;;;0.13;0.13;;;;;;;-5.94;86.47;102571.38;1826832;78;21110;-49
2020/12/06 04:44:54;;;;;;;0.00;0.00;;;;;;;-5.97;86.47;102571.13;1799578;78;21138;-49
2020/12/06 04:47:45;;;;;;;0.10;0.10;;;;;;;-6.03;86.29;102572.08;1826088;78;21122;-48
2020/12/06 04:50:15;;;;;;;0.20;0.20;;;;;;;-6.08;86.32;102573.80;1794352;79;21141;-49
2020/12/06 04:52:43;;;;;;;0.10;0.10;;;;;;;-6.14;86.41;102571.09;1799911;78;21134;-50
2020/12/06 04:55:12;;;;;;;0.10;0.10;;;;;;;-6.18;86.66;102572.78;1826780;78;21157;-49
2020/12/06 04:57:40;;;;;;;0.45;0.45;;;;;;;-6.21;86.69;102571.20;1826769;78;21393;-53
2020/12/06 05:00:09;;;;;;;0.00;0.00;;;;;;;-6.24;86.67;102570.11;1826898;78;21122;-54
2020/12/06 05:02:38;;;;;;;2.85;0.40;;;;;;;-6.27;86.90;102574.34;1822543;78;21554;-48
2020/12/06 05:05:06;;;;;;;0.10;0.10;;;;;;;-6.28;86.96;102572.63;1794350;79;21129;-48
2020/12/06 05:07:34;;;;;;;0.25;0.25;;;;;;;-6.28;87.27;102568.18;1799703;78;21082;-48
2020/12/06 05:10:03;;;;;;;1.35;0.65;;;;;;;-6.23;87.46;102572.28;1826961;78;21113;-49
2020/12/06 05:12:30;;;;;;;0.10;0.10;;;;;;;-6.20;87.58;102578.23;1824096;78;21114;-48
2020/12/06 05:14:57;;;;;;;0.10;0.10;;;;;;;-6.17;87.53;102571.83;1794236;79;21434;-50
2020/12/06 05:17:25;;;;;;;0.10;0.10;;;;;;;-6.14;87.57;102577.75;1810558;77;21136;-48
2020/12/06 05:19:53;;;;;;;0.10;0.10;;;;;;;-6.12;87.56;102573.66;1826728;78;21107;-49
2020/12/06 05:22:26;;;;;;;0.10;0.10;;;;;;;-6.12;87.39;102585.14;1827153;78;21160;-48
2020/12/06 05:24:53;;;;;;;0.03;0.03;;;;;;;-6.14;87.42;102577.75;1826467;78;21152;-53
2020/12/06 05:27:20;;;;;;;0.28;0.28;;;;;;;-6.15;87.36;102576.56;1796750;78;21580;-49
2020/12/06 05:29:48;;;;;;;0.10;0.10;;;;;;;-6.12;87.54;102585.14;1794321;79;21125;-48
2020/12/06 05:32:15;;;;;;;0.10;0.10;;;;;;;-6.10;87.56;102583.70;1794724;78;21108;-48
2020/12/06 05:34:43;;;;;;;0.00;0.00;;;;;;;-6.04;87.40;102586.37;1825587;78;21276;-48
2020/12/06 05:37:10;;;;;;;0.20;0.20;;;;;;;-6.08;87.47;102591.94;1746085;78;21094;-49
2020/12/06 05:39:38;;;;;;;0.10;0.10;;;;;;;-6.09;87.57;102590.22;1792165;78;21133;-49
2020/12/06 05:42:05;;;;;;;0.05;0.05;;;;;;;-6.07;87.74;102586.13;1791104;80;21156;-48
2020/12/06 05:44:32;;;;;;;0.10;0.10;;;;;;;-6.07;87.76;102590.95;1821123;78;21146;-53
2020/12/06 05:47:00;;;;;;;0.20;0.20;;;;;;;-6.02;87.77;102589.28;1821710;78;21105;-53
2020/12/06 05:49:28;;;;;;;0.10;0.10;;;;;;;-5.96;87.90;102599.92;1794836;78;21157;-49
2020/12/06 05:51:56;;;;;;;0.10;0.10;;;;;;;-5.93;87.83;102600.52;1791129;80;21441;-53
2020/12/06 05:54:24;;;;;;;0.10;0.10;;;;;;;-5.85;88.00;102603.92;1792278;78;21157;-49
2020/12/06 05:56:52;;;;;;;0.05;0.05;;;;;;;-5.81;88.02;102602.73;1792625;78;21121;-53
2020/12/06 05:59:21;;;;;;;0.00;0.00;;;;;;;-5.76;87.78;102605.87;1798700;78;21134;-53
2020/12/06 06:01:53;;;;;;;0.20;0.20;;;;;;;-5.72;87.63;102607.31;1812238;78;21161;-48
2020/12/06 06:04:21;;;;;;;0.10;0.10;;;;;;;-5.72;87.63;102607.31;1779810;80;21198;-53
2020/12/06 06:06:52;;;;;;;0.98;0.33;;;;;;;-5.72;87.73;102607.31;1743821;80;21577;-54
2020/12/06 06:09:19;;;;;;;0.05;0.05;;;;;;;-5.72;87.73;102607.31;1765773;80;21145;-48
2020/12/06 06:12:06;;;;;;;0.00;0.00;;;;;;;-5.72;87.58;102619.30;1822016;78;21102;-52
2020/12/06 06:14:33;;;;;;;0.00;0.00;;;;;;;-5.72;87.64;102614.46;1823820;78;21208;-53
2020/12/06 06:17:01;;;;;;;0.10;0.10;;;;;;;-5.70;87.53;102616.04;1792950;78;21110;-53
2020/12/06 06:19:28;;;;;;;0.00;0.00;;;;;;;-5.66;87.70;102621.50;1799063;78;21133;-53
2020/12/06 06:21:56;;;;;;;0.10;0.10;;;;;;;-5.57;87.67;102625.73;1824385;78;21101;-48
2020/12/06 06:24:24;;;;;;;0.00;0.00;;;;;;;-5.50;87.74;102618.95;1821151;78;21161;-50
2020/12/06 06:26:52;;;;;;;0.20;0.20;;;;;;;-5.42;87.54;102620.52;1824030;78;21596;-54
2020/12/06 06:29:20;;;;;;;1.20;0.68;;;;;;;-5.30;86.89;102614.71;1823797;78;21189;-53
2020/12/06 06:31:52;;;;;;;0.03;0.03;;;;;;;-5.20;86.85;102620.51;1821615;78;21426;-53
2020/12/06 06:34:26;;;;;;;0.47;0.47;;;;;;;-5.10;86.71;102614.45;1786670;78;21103;-48
2020/12/06 06:36:54;;;;;;;0.10;0.10;;;;;;;-5.04;86.61;102624.63;1794279;78;21114;-50
2020/12/06 06:39:22;;;;;;;0.10;0.10;;;;;;;-4.97;86.39;102618.68;1823637;78;21117;-49
2020/12/06 06:42:15;;;;;;;0.70;0.70;;;;;;;-4.89;86.07;102616.72;1763758;80;21103;-53
2020/12/06 06:44:45;;;;;;;0.10;0.10;;;;;;;-4.83;85.93;102618.03;1736297;81;21247;-53
2020/12/06 06:47:13;;;;;;;0.10;0.10;;;;;;;-4.78;85.56;102610.00;1727209;81;21146;-53
2020/12/06 06:49:57;;;;;;;0.20;0.20;;;;;;;-4.72;85.51;102613.14;1731018;81;21154;-53
2020/12/06 06:52:26;;;;;;;0.00;0.00;;;;;;;-4.66;85.01;102620.16;1727946;81;21162;-49
2020/12/06 06:54:56;;;;;;;0.10;0.10;;;;;;;-4.62;84.76;102618.11;1723670;81;21142;-50
2020/12/06 06:57:30;;;;;;;0.10;0.10;;;;;;;-4.56;84.79;102617.58;1724316;83;21426;-48
2020/12/06 06:59:58;;;;;;;0.10;0.10;;;;;;;-4.52;84.39;102616.83;1718853;80;21122;-48
2020/12/06 07:02:42;;;;;;;0.30;0.30;;;;;;;-4.47;84.12;102616.83;1800804;79;21100;-53
2020/12/06 07:05:20;;;;;;;0.10;0.10;;;;;;;-4.41;84.09;102621.64;1745369;81;21197;-52
2020/12/06 07:07:53;;;;;;;0.00;0.00;;;;;;;-4.36;83.94;102626.60;1724052;83;21153;-52
2020/12/06 07:10:22;;;;;;;0.33;0.33;;;;;;;-4.34;83.85;102628.16;1722308;81;21142;-52
2020/12/06 07:12:53;;;;;;;0.00;0.00;;;;;;;-4.30;83.72;102627.90;1752220;81;21171;-50
2020/12/06 07:15:22;;;;;;;0.10;0.10;;;;;;;-4.28;83.85;102628.62;1760877;81;21157;-52
2020/12/06 07:17:51;;;;;;;0.30;0.30;;;;;;;-4.27;83.50;102631.67;1742044;81;21801;-51
2020/12/06 07:20:19;;;;;;;0.10;0.10;;;;;;;-4.27;83.30;102629.00;1734439;81;21170;-48
2020/12/06 07:22:47;;;;;;;0.00;0.00;;;;;;;-4.26;83.20;102626.68;1732764;81;21110;-47
2020/12/06 07:25:16;;;;;;;0.10;0.10;;;;;;;-4.24;83.30;102632.25;1758256;81;21441;-48
2020/12/06 07:27:44;;;;;;;0.10;0.10;;;;;;;-4.21;83.16;102627.98;1751344;81;21146;-48
2020/12/06 07:30:18;;;;;;;0.25;0.25;;;;;;;-4.17;82.99;102636.59;1732528;82;21169;-47
2020/12/06 07:32:46;;;;;;;0.10;0.10;;;;;;;-4.13;83.24;102642.89;1747560;81;21135;-52
2020/12/06 07:35:14;;;;;;;0.10;0.10;;;;;;;-4.10;83.07;102633.77;1758142;80;21430;-48
2020/12/06 07:37:42;;;;;;;0.10;0.10;;;;;;;-4.05;83.11;102632.89;1757068;81;21533;-48
2020/12/06 07:40:10;;;;;;;0.08;0.08;;;;;;;-4.01;82.88;102634.30;1742390;81;21130;-48
2020/12/06 07:42:37;;;;;;;0.13;0.13;;;;;;;-4.00;82.40;102629.34;1738343;80;21162;-52
2020/12/06 07:45:06;;;;;;;0.10;0.10;;;;;;;-3.98;82.38;102627.39;1727245;81;21146;-52
2020/12/06 07:47:34;;;;;;;0.10;0.10;;;;;;;-3.96;82.13;102634.76;1727390;81;21139;-48
2020/12/06 07:50:02;;;;;;;0.10;0.10;;;;;;;-3.94;82.04;102621.28;1727716;81;21601;-52
2020/12/06 07:52:35;;;;;;;0.10;0.10;;;;;;;-3.92;82.17;102630.02;1729658;81;21628;-52
2020/12/06 07:55:08;;;;;;;0.10;0.10;;;;;;;-3.90;81.78;102628.91;1755838;81;21154;-52
2020/12/06 07:57:53;;;;;;;0.10;0.10;;;;;;;-3.94;81.25;102626.13;1754868;81;21130;-50
2020/12/06 08:00:30;;;;;;;0.10;0.10;;;;;;;-3.94;81.50;102635.48;1757351;81;21122;-53
2020/12/06 08:02:59;;;;;;;0.10;0.10;;;;;;;-3.94;81.36;102632.81;1751946;81;21164;-53
2020/12/06 08:05:28;;;;;;;0.10;0.10;;;;;;;-3.94;81.38;102629.30;1751687;81;21150;-48
2020/12/06 08:08:07;;;;;;;0.10;0.10;;;;;;;-3.92;81.25;102632.20;1753326;81;21122;-50
2020/12/06 08:10:35;;;;;;;1.00;0.80;;;;;;;-3.90;81.36;102634.25;1757066;81;21134;-49
2020/12/06 08:13:02;;;;;;;0.20;0.20;;;;;;;-3.85;81.50;102635.70;1755193;81;21131;-53
2020/12/06 08:15:30;;;;;;;0.00;0.00;;;;;;;-3.81;81.55;102630.42;1721181;81;21091;-54
2020/12/06 08:17:58;;;;;;;0.00;0.00;;;;;;;-3.79;80.64;102631.15;1733427;81;21110;-54
2020/12/06 08:20:26;;;;;;;0.00;0.00;;;;;;;-3.81;80.52;102624.59;1743885;81;21130;-49
2020/12/06 08:22:56;;;;;;;0.13;0.13;;;;;;;-3.84;79.96;102622.19;1742836;81;21161;-48
2020/12/06 08:25:31;;;;;;;0.20;0.20;;;;;;;-3.87;79.88;102617.11;1748985;81;21138;-49
2020/12/06 08:28:02;;;;;;;0.10;0.10;;;;;;;-3.86;80.18;102612.61;1727471;81;21113;-50
2020/12/06 08:30:30;;;;;;;0.00;0.00;;;;;;;-3.85;79.77;102620.51;1726994;83;21588;-49
2020/12/06 08:33:02;;;;;;;0.10;0.10;;;;;;;-3.85;79.47;102615.16;1753608;81;21149;-48
2020/12/06 08:35:48;;;;;;;0.10;0.10;;;;;;;-3.85;79.19;102613.83;1759217;80;21102;-49
2020/12/06 08:38:26;;;;;;;0.33;0.33;;;;;;;-3.84;79.66;102615.51;1739943;81;21462;-49
2020/12/06 08:41:12;;;;;;;0.13;0.13;;;;;;;-3.80;79.81;102620.12;1737147;81;21122;-48
2020/12/06 08:43:51;;;;;;;0.08;0.08;;;;;;;-3.78;79.25;102610.16;1742251;81;21991;-48
2020/12/06 08:46:24;;;;;;;0.00;0.00;;;;;;;-3.76;79.33;102612.17;1761104;81;21150;-49
2020/12/06 08:48:55;;;;;;;0.00;0.00;;;;;;;-3.76;79.02;102608.16;1756563;81;21190;-49
2020/12/06 08:51:39;;;;;;;0.10;0.10;;;;;;;-3.77;78.91;102611.83;1756759;81;21165;-49
2020/12/06 08:54:07;;;;;;;0.15;0.15;;;;;;;-3.78;78.81;102616.83;1758832;81;21418;-48
2020/12/06 08:56:39;;;;;;;0.10;0.10;;;;;;;-3.79;79.01;102613.28;1757150;81;21119;-48
2020/12/06 08:59:12;;;;;;;0.10;0.10;;;;;;;-3.77;79.14;102608.66;1756550;81;21149;-48
2020/12/06 09:01:52;;;;;;;0.15;0.15;;;;;;;-3.73;78.60;102614.11;1761244;81;21765;-49
2020/12/06 09:04:20;;;;;;;0.10;0.10;;;;;;;-3.70;78.90;102609.83;1749983;81;21170;-49
2020/12/06 09:06:50;;;;;;;0.10;0.10;;;;;;;-3.68;78.82;102615.05;1733953;81;21570;-48
2020/12/06 09:09:17;;;;;;;0.13;0.13;;;;;;;-3.65;78.66;102610.77;1735565;81;21123;-48
2020/12/06 09:11:49;;;;;;;0.33;0.33;;;;;;;-3.60;78.81;102608.55;1733716;81;21540;-48
2020/12/06 09:14:16;;;;;;;0.20;0.20;;;;;;;-3.54;78.78;102609.83;1717162;81;21134;-49
2020/12/06 09:16:43;;;;;;;3.00;0.53;;;;;;;-3.52;78.63;102608.72;1739096;81;21461;-48
2020/12/06 09:19:11;;;;;;;0.00;0.00;;;;;;;-3.52;78.52;102602.53;1747452;81;21130;-49
2020/12/06 09:21:38;;;;;;;0.00;0.00;;;;;;;-3.52;78.58;102610.55;1760106;81;21086;-49
2020/12/06 09:24:06;;;;;;;0.62;0.62;;;;;;;-3.57;77.58;102601.59;1760614;81;21737;-49
2020/12/06 09:26:33;;;;;;;0.03;0.03;;;;;;;-3.65;77.63;102602.75;1742915;81;21118;-48
2020/12/06 09:29:00;;;;;;;0.10;0.10;;;;;;;-3.67;77.63;102604.70;1757560;81;21174;-48
2020/12/06 09:31:28;;;;;;;0.05;0.05;;;;;;;-3.69;77.67;102602.66;1757895;81;21133;-48
2020/12/06 09:33:57;;;;;;;0.42;0.42;;;;;;;-3.68;78.11;102605.70;1739808;81;21107;-49
2020/12/06 09:36:25;;;;;;;0.10;0.10;;;;;;;-3.64;78.43;102605.77;1732524;81;21176;-49
2020/12/06 09:38:52;;;;;;;0.10;0.10;;;;;;;-3.61;78.27;102609.53;1732672;82;21168;-48
2020/12/06 09:41:20;;;;;;;0.30;0.30;;;;;;;-3.60;78.41;102609.87;1732634;82;21153;-49
2020/12/06 09:43:47;;;;;;;0.10;0.10;;;;;;;-3.62;77.47;102606.48;1732647;82;21164;-49
2020/12/06 09:46:16;;;;;;;0.10;0.10;;;;;;;-3.67;77.30;102606.88;1732475;82;21097;-49
2020/12/06 09:48:43;;;;;;;0.13;0.13;;;;;;;-3.69;77.20;102597.31;1732552;82;21632;-49
2020/12/06 09:51:11;;;;;;;0.15;0.15;;;;;;;-3.70;77.55;102595.13;1732335;82;21185;-48
2020/12/06 09:53:38;;;;;;;0.20;0.20;;;;;;;-3.67;77.40;102600.70;1732363;82;21129;-49
2020/12/06 09:56:06;;;;;;;0.47;0.47;;;;;;;-3.68;77.27;102596.34;1732425;82;21158;-47
2020/12/06 09:58:33;;;;;;;0.05;0.05;;;;;;;-3.71;77.06;102589.45;1732741;82;21122;-48
2020/12/06 10:01:00;;;;;;;0.10;0.10;;;;;;;-3.71;76.99;102585.44;1732665;82;21628;-49
2020/12/06 10:03:28;;;;;;;0.10;0.10;;;;;;;-3.70;77.07;102594.30;1732785;82;21102;-48
2020/12/06 10:05:57;;;;;;;0.10;0.10;;;;;;;-3.69;77.41;102582.61;1732678;82;21111;-49
2020/12/06 10:08:26;;;;;;;0.10;0.10;;;;;;;-3.70;77.21;102583.11;1732463;82;21162;-49
2020/12/06 10:10:55;;;;;;;0.30;0.30;;;;;;;-3.70;76.13;102586.28;1732449;82;21183;-48
2020/12/06 10:13:22;;;;;;;0.10;0.10;;;;;;;-3.73;76.15;102595.41;1732525;82;21137;-48
2020/12/06 10:15:50;;;;;;;0.53;0.53;;;;;;;-3.71;76.14;102589.45;1732445;82;21150;-48
2020/12/06 10:18:17;;;;;;;0.23;0.23;;;;;;;-3.70;76.37;102584.94;1732562;82;21106;-49
2020/12/06 10:20:45;;;;;;;0.00;0.00;;;;;;;-3.71;76.22;102585.91;1732495;82;21130;-49
2020/12/06 10:23:12;;;;;;;0.10;0.10;;;;;;;-3.73;76.29;102578.53;1732589;82;21454;-50
2020/12/06 10:25:40;;;;;;;0.10;0.10;;;;;;;-3.72;76.14;102577.55;1732572;82;21138;-48
2020/12/06 10:28:08;;;;;;;0.10;0.10;;;;;;;-3.74;76.51;102579.50;1732534;82;21153;-49
2020/12/06 10:30:35;;;;;;;0.20;0.20;;;;;;;-3.74;76.49;102573.66;1732498;82;21150;-48
2020/12/06 10:33:02;;;;;;;0.40;0.40;;;;;;;-3.74;76.41;102571.48;1732514;82;21137;-48
2020/12/06 10:35:30;;;;;;;0.82;0.82;;;;;;;-3.72;76.66;102573.04;1732413;81;20987;-48
2020/12/06 10:37:57;;;;;;;0.10;0.10;;;;;;;-3.69;76.79;102575.44;1732657;82;21142;-48
2020/12/06 10:40:25;;;;;;;0.65;0.35;;;;;;;-3.66;75.95;102579.66;1732656;82;21194;-48
2020/12/06 10:42:52;;;;;;;0.10;0.10;;;;;;;-3.69;75.99;102574.59;1732625;82;21130;-48
2020/12/06 10:45:20;;;;;;;0.40;0.40;;;;;;;-3.71;76.39;102574.75;1732742;82;21130;-48
2020/12/06 10:47:47;;;;;;;0.33;0.33;;;;;;;-3.71;75.89;102576.09;1732559;82;21537;-48
2020/12/06 10:50:14;;;;;;;0.20;0.20;;;;;;;-3.72;75.69;102575.70;1732374;82;21472;-48
2020/12/06 10:52:42;;;;;;;0.80;0.80;;;;;;;-3.74;75.96;102574.99;1732510;82;21134;-48
2020/12/06 10:55:11;;;;;;;0.50;0.17;;;;;;;-3.74;75.86;102579.50;1732553;82;21126;-48
2020/12/06 10:57:38;;;;;;;0.10;0.10;;;;;;;-3.72;75.89;102574.88;1732422;82;21604;-48
2020/12/06 11:00:06;;;;;;;0.10;0.10;;;;;;;-3.69;75.51;102566.58;1732521;82;21438;-48
2020/12/06 11:02:33;;;;;;;0.45;0.45;;;;;;;-3.70;75.50;102565.73;1732516;82;21149;-48
2020/12/06 11:05:01;;;;;;;0.53;0.53;;;;;;;-3.70;76.01;102563.56;1732440;82;21114;-48
2020/12/06 11:07:29;;;;;;;0.10;0.10;;;;;;;-3.68;75.98;102563.78;1732611;82;21130;-49
2020/12/06 11:09:57;;;;;;;0.75;0.75;;;;;;;-3.65;76.03;102565.34;1732587;82;21137;-48
2020/12/06 11:12:25;;;;;;;0.10;0.10;;;;;;;-3.63;75.60;102567.89;1732510;82;21147;-48
2020/12/06 11:14:53;;;;;;;0.10;0.10;;;;;;;-3.62;75.46;102554.38;1732286;82;21137;-50
2020/12/06 11:17:20;;;;;;;0.10;0.10;;;;;;;-3.61;75.17;102558.76;1732293;82;21741;-47
2020/12/06 11:19:48;;;;;;;0.13;0.13;;;;;;;-3.60;75.39;102554.25;1732540;82;21573;-49
2020/12/06 11:22:15;;;;;;;0.00;0.00;;;;;;;-3.60;75.33;102557.77;1732493;82;21122;-49
2020/12/06 11:24:42;;;;;;;0.10;0.10;;;;;;;-3.60;75.23;102551.08;1732695;82;21330;-48
2020/12/06 11:27:10;;;;;;;0.20;0.20;;;;;;;-3.60;75.51;102552.42;1732592;82;21580;-48
2020/12/06 11:29:38;;;;;;;0.30;0.30;;;;;;;-3.61;74.74;102553.41;1732443;82;21142;-47
2020/12/06 11:32:05;;;;;;;0.37;0.37;;;;;;;-3.63;75.01;102554.03;1732508;82;21158;-48